sensor_id;sensor_type;location;lat;lon;timestamp;temperature;humidity
22450;DHT22;11392;57.390;-2.468;2023-12-29T00:02:16;4.30;99.90
22450;DHT22;11392;57.390;-2.468;2023-12-29T00:04:43;4.20;99.90
22450;DHT22;11392;57.390;-2.468;2023-12-29T00:07:10;4.10;99.90
22450;DHT22;11392;57.390;-2.468;2023-12-29T00:09:37;4.10;99.90
22450;DHT22;11392;57.390;-2.468;2023-12-29T00:12:08;4.10;99.90
22450;DHT22;11392;57.390;-2.468;2023-12-29T00:14:39;4.00;99.90
22450;DHT22;11392;57.390;-2.468;2023-12-29T00:17:07;4.00;99.90
22450;DHT22;11392;57.390;-2.468;2023-12-29T00:19:34;4.00;99.90
22450;DHT22;11392;57.390;-2.468;2023-12-29T00:22:01;4.00;99.90
22450;DHT22;11392;57.390;-2.468;2023-12-29T00:24:31;4.00;99.90
22450;DHT22;11392;57.390;-2.468;2023-12-29T00:26:58;4.00;99.90
22450;DHT22;11392;57.390;-2.468;2023-12-29T00:29:26;4.00;99.90
22450;DHT22;11392;57.390;-2.468;2023-12-29T00:31:59;4.00;99.90
22450;DHT22;11392;57.390;-2.468;2023-12-29T00:34:27;3.90;99.90
22450;DHT22;11392;57.390;-2.468;2023-12-29T00:36:54;3.90;99.90
22450;DHT22;11392;57.390;-2.468;2023-12-29T00:39:21;3.90;99.90
22450;DHT22;11392;57.390;-2.468;2023-12-29T00:41:56;3.90;99.90
22450;DHT22;11392;57.390;-2.468;2023-12-29T00:44:24;3.90;99.90
22450;DHT22;11392;57.390;-2.468;2023-12-29T00:46:51;3.90;99.90
22450;DHT22;11392;57.390;-2.468;2023-12-29T00:49:18;3.90;99.90
22450;DHT22;11392;57.390;-2.468;2023-12-29T00:51:47;3.90;99.90
22450;DHT22;11392;57.390;-2.468;2023-12-29T00:54:15;3.90;99.90
22450;DHT22;11392;57.390;-2.468;2023-12-29T00:56:49;3.90;99.90
22450;DHT22;11392;57.390;-2.468;2023-12-29T00:59:18;3.90;99.90
22450;DHT22;11392;57.390;-2.468;2023-12-29T01:01:45;3.90;99.90
22450;DHT22;11392;57.390;-2.468;2023-12-29T01:04:13;3.90;99.90
22450;DHT22;11392;57.390;-2.468;2023-12-29T01:06:40;3.90;99.90
22450;DHT22;11392;57.390;-2.468;2023-12-29T01:09:07;3.80;99.90
22450;DHT22;11392;57.390;-2.468;2023-12-29T01:11:36;3.90;99.90
22450;DHT22;11392;57.390;-2.468;2023-12-29T01:14:03;3.80;99.90
22450;DHT22;11392;57.390;-2.468;2023-12-29T01:16:30;3.80;99.90
22450;DHT22;11392;57.390;-2.468;2023-12-29T01:18:57;3.80;99.90
22450;DHT22;11392;57.390;-2.468;2023-12-29T01:21:24;3.80;99.90
22450;DHT22;11392;57.390;-2.468;2023-12-29T01:23:51;3.80;99.90
22450;DHT22;11392;57.390;-2.468;2023-12-29T01:26:18;3.80;99.90
22450;DHT22;11392;57.390;-2.468;2023-12-29T01:28:45;3.70;99.90
22450;DHT22;11392;57.390;-2.468;2023-12-29T01:31:13;3.70;99.90
22450;DHT22;11392;57.390;-2.468;2023-12-29T01:33:40;3.60;99.90
22450;DHT22;11392;57.390;-2.468;2023-12-29T01:36:08;3.60;99.90
22450;DHT22;11392;57.390;-2.468;2023-12-29T01:38:43;3.70;99.90
22450;DHT22;11392;57.390;-2.468;2023-12-29T01:41:10;3.70;99.90
22450;DHT22;11392;57.390;-2.468;2023-12-29T01:46:33;3.80;99.90
22450;DHT22;11392;57.390;-2.468;2023-12-29T01:49:01;3.80;99.90
22450;DHT22;11392;57.390;-2.468;2023-12-29T01:51:29;3.80;99.90
22450;DHT22;11392;57.390;-2.468;2023-12-29T01:53:58;3.80;99.90
22450;DHT22;11392;57.390;-2.468;2023-12-29T01:56:26;3.80;99.90
22450;DHT22;11392;57.390;-2.468;2023-12-29T01:58:55;3.80;99.90
22450;DHT22;11392;57.390;-2.468;2023-12-29T02:01:35;3.80;99.90
22450;DHT22;11392;57.390;-2.468;2023-12-29T02:04:06;3.70;99.90
22450;DHT22;11392;57.390;-2.468;2023-12-29T02:06:37;3.60;99.90
22450;DHT22;11392;57.390;-2.468;2023-12-29T02:09:04;3.50;99.90
22450;DHT22;11392;57.390;-2.468;2023-12-29T02:11:32;3.50;99.90
22450;DHT22;11392;57.390;-2.468;2023-12-29T02:14:00;3.40;99.90
22450;DHT22;11392;57.390;-2.468;2023-12-29T02:19:44;3.30;99.90
22450;DHT22;11392;57.390;-2.468;2023-12-29T02:22:16;3.20;99.90
22450;DHT22;11392;57.390;-2.468;2023-12-29T02:24:47;3.20;99.90
22450;DHT22;11392;57.390;-2.468;2023-12-29T02:32:50;3.30;99.90
22450;DHT22;11392;57.390;-2.468;2023-12-29T02:35:25;3.30;99.90
22450;DHT22;11392;57.390;-2.468;2023-12-29T02:37:57;3.30;99.90
22450;DHT22;11392;57.390;-2.468;2023-12-29T02:40:25;3.40;99.90
22450;DHT22;11392;57.390;-2.468;2023-12-29T02:42:52;3.40;99.90
22450;DHT22;11392;57.390;-2.468;2023-12-29T02:45:20;3.40;99.90
22450;DHT22;11392;57.390;-2.468;2023-12-29T02:47:47;3.40;99.90
22450;DHT22;11392;57.390;-2.468;2023-12-29T02:50:15;3.50;99.90
22450;DHT22;11392;57.390;-2.468;2023-12-29T02:52:42;3.60;99.90
22450;DHT22;11392;57.390;-2.468;2023-12-29T02:55:10;3.60;99.90
22450;DHT22;11392;57.390;-2.468;2023-12-29T02:57:38;3.60;99.90
22450;DHT22;11392;57.390;-2.468;2023-12-29T03:00:06;3.60;99.90
22450;DHT22;11392;57.390;-2.468;2023-12-29T03:02:33;3.60;99.90
22450;DHT22;11392;57.390;-2.468;2023-12-29T03:05:01;3.60;99.90
22450;DHT22;11392;57.390;-2.468;2023-12-29T03:07:28;3.60;99.90
22450;DHT22;11392;57.390;-2.468;2023-12-29T03:09:55;3.70;99.90
22450;DHT22;11392;57.390;-2.468;2023-12-29T03:12:23;3.70;99.90
22450;DHT22;11392;57.390;-2.468;2023-12-29T03:14:50;3.70;99.90
22450;DHT22;11392;57.390;-2.468;2023-12-29T03:17:17;3.70;99.90
22450;DHT22;11392;57.390;-2.468;2023-12-29T03:19:44;3.80;99.90
22450;DHT22;11392;57.390;-2.468;2023-12-29T03:22:11;3.80;99.90
22450;DHT22;11392;57.390;-2.468;2023-12-29T03:24:40;3.80;99.90
22450;DHT22;11392;57.390;-2.468;2023-12-29T03:27:08;3.80;99.90
22450;DHT22;11392;57.390;-2.468;2023-12-29T03:29:35;3.80;99.90
22450;DHT22;11392;57.390;-2.468;2023-12-29T03:32:03;3.80;99.90
22450;DHT22;11392;57.390;-2.468;2023-12-29T03:34:30;3.90;99.90
22450;DHT22;11392;57.390;-2.468;2023-12-29T03:36:57;3.90;99.90
22450;DHT22;11392;57.390;-2.468;2023-12-29T03:39:24;3.90;99.90
22450;DHT22;11392;57.390;-2.468;2023-12-29T03:41:51;3.90;99.90
22450;DHT22;11392;57.390;-2.468;2023-12-29T03:44:18;3.90;99.90
22450;DHT22;11392;57.390;-2.468;2023-12-29T03:46:45;3.90;99.90
22450;DHT22;11392;57.390;-2.468;2023-12-29T03:49:13;3.90;99.90
22450;DHT22;11392;57.390;-2.468;2023-12-29T03:51:40;3.90;99.90
22450;DHT22;11392;57.390;-2.468;2023-12-29T03:54:07;3.90;99.90
22450;DHT22;11392;57.390;-2.468;2023-12-29T03:56:34;3.90;99.90
22450;DHT22;11392;57.390;-2.468;2023-12-29T03:59:01;3.90;99.90
22450;DHT22;11392;57.390;-2.468;2023-12-29T04:01:28;3.90;99.90
22450;DHT22;11392;57.390;-2.468;2023-12-29T04:03:56;4.00;99.90
22450;DHT22;11392;57.390;-2.468;2023-12-29T04:06:23;3.90;99.90
22450;DHT22;11392;57.390;-2.468;2023-12-29T04:08:50;3.90;99.90
22450;DHT22;11392;57.390;-2.468;2023-12-29T04:11:17;3.90;99.90
22450;DHT22;11392;57.390;-2.468;2023-12-29T04:13:44;3.90;99.90
22450;DHT22;11392;57.390;-2.468;2023-12-29T04:16:11;3.90;99.90
22450;DHT22;11392;57.390;-2.468;2023-12-29T04:18:39;3.90;99.90
22450;DHT22;11392;57.390;-2.468;2023-12-29T04:21:06;3.80;99.90
22450;DHT22;11392;57.390;-2.468;2023-12-29T04:23:36;3.80;99.90
22450;DHT22;11392;57.390;-2.468;2023-12-29T04:26:03;3.70;99.90
22450;DHT22;11392;57.390;-2.468;2023-12-29T04:28:30;3.60;99.90
22450;DHT22;11392;57.390;-2.468;2023-12-29T04:30:57;3.60;99.90
22450;DHT22;11392;57.390;-2.468;2023-12-29T04:33:24;3.60;99.90
22450;DHT22;11392;57.390;-2.468;2023-12-29T04:35:51;3.60;99.90
22450;DHT22;11392;57.390;-2.468;2023-12-29T04:38:18;3.50;99.90
22450;DHT22;11392;57.390;-2.468;2023-12-29T04:40:46;3.40;99.90
22450;DHT22;11392;57.390;-2.468;2023-12-29T04:43:14;3.30;99.90
22450;DHT22;11392;57.390;-2.468;2023-12-29T04:45:41;3.30;99.90
22450;DHT22;11392;57.390;-2.468;2023-12-29T04:48:08;3.20;99.90
22450;DHT22;11392;57.390;-2.468;2023-12-29T04:50:35;3.20;99.90
22450;DHT22;11392;57.390;-2.468;2023-12-29T04:53:02;3.20;99.90
22450;DHT22;11392;57.390;-2.468;2023-12-29T04:55:30;3.10;99.90
22450;DHT22;11392;57.390;-2.468;2023-12-29T04:57:59;3.10;99.90
22450;DHT22;11392;57.390;-2.468;2023-12-29T05:00:27;3.10;99.90
22450;DHT22;11392;57.390;-2.468;2023-12-29T05:02:54;3.10;99.90
22450;DHT22;11392;57.390;-2.468;2023-12-29T05:05:21;3.10;99.90
22450;DHT22;11392;57.390;-2.468;2023-12-29T05:07:48;3.10;99.90
22450;DHT22;11392;57.390;-2.468;2023-12-29T05:10:15;3.20;99.90
22450;DHT22;11392;57.390;-2.468;2023-12-29T05:12:42;3.20;99.90
22450;DHT22;11392;57.390;-2.468;2023-12-29T05:15:09;3.30;99.90
22450;DHT22;11392;57.390;-2.468;2023-12-29T05:17:36;3.30;99.90
22450;DHT22;11392;57.390;-2.468;2023-12-29T05:20:07;3.30;99.90
22450;DHT22;11392;57.390;-2.468;2023-12-29T05:22:34;3.40;99.90
22450;DHT22;11392;57.390;-2.468;2023-12-29T05:25:02;3.40;99.90
22450;DHT22;11392;57.390;-2.468;2023-12-29T05:27:30;3.30;99.90
22450;DHT22;11392;57.390;-2.468;2023-12-29T05:29:59;3.20;99.90
22450;DHT22;11392;57.390;-2.468;2023-12-29T05:32:26;3.20;99.90
22450;DHT22;11392;57.390;-2.468;2023-12-29T05:34:53;3.20;99.90
22450;DHT22;11392;57.390;-2.468;2023-12-29T05:37:21;3.20;99.90
22450;DHT22;11392;57.390;-2.468;2023-12-29T05:39:48;3.20;99.90
22450;DHT22;11392;57.390;-2.468;2023-12-29T05:42:15;3.20;99.90
22450;DHT22;11392;57.390;-2.468;2023-12-29T05:44:42;3.20;99.90
22450;DHT22;11392;57.390;-2.468;2023-12-29T05:47:09;3.20;99.90
22450;DHT22;11392;57.390;-2.468;2023-12-29T05:49:36;3.10;99.90
22450;DHT22;11392;57.390;-2.468;2023-12-29T05:52:06;3.20;99.90
22450;DHT22;11392;57.390;-2.468;2023-12-29T05:54:34;3.20;99.90
22450;DHT22;11392;57.390;-2.468;2023-12-29T05:57:02;3.20;99.90
22450;DHT22;11392;57.390;-2.468;2023-12-29T05:59:29;3.30;99.90
22450;DHT22;11392;57.390;-2.468;2023-12-29T06:01:56;3.40;99.90
22450;DHT22;11392;57.390;-2.468;2023-12-29T06:04:23;3.40;99.90
22450;DHT22;11392;57.390;-2.468;2023-12-29T06:06:51;3.40;99.90
22450;DHT22;11392;57.390;-2.468;2023-12-29T06:09:18;3.30;99.90
22450;DHT22;11392;57.390;-2.468;2023-12-29T06:11:45;3.30;99.90
22450;DHT22;11392;57.390;-2.468;2023-12-29T06:14:12;3.30;99.90
22450;DHT22;11392;57.390;-2.468;2023-12-29T06:16:39;3.30;99.90
22450;DHT22;11392;57.390;-2.468;2023-12-29T06:19:08;3.20;99.90
22450;DHT22;11392;57.390;-2.468;2023-12-29T06:21:42;3.30;99.90
22450;DHT22;11392;57.390;-2.468;2023-12-29T06:24:10;3.30;99.90
22450;DHT22;11392;57.390;-2.468;2023-12-29T06:26:38;3.30;99.90
22450;DHT22;11392;57.390;-2.468;2023-12-29T06:29:10;3.20;99.90
22450;DHT22;11392;57.390;-2.468;2023-12-29T06:31:40;3.20;99.90
22450;DHT22;11392;57.390;-2.468;2023-12-29T06:34:09;3.20;99.90
22450;DHT22;11392;57.390;-2.468;2023-12-29T06:36:36;3.20;99.90
22450;DHT22;11392;57.390;-2.468;2023-12-29T06:39:03;3.10;99.90
22450;DHT22;11392;57.390;-2.468;2023-12-29T06:41:30;3.20;99.90
22450;DHT22;11392;57.390;-2.468;2023-12-29T06:43:58;3.20;99.90
22450;DHT22;11392;57.390;-2.468;2023-12-29T06:46:25;3.20;99.90
22450;DHT22;11392;57.390;-2.468;2023-12-29T06:48:52;3.20;99.90
22450;DHT22;11392;57.390;-2.468;2023-12-29T06:51:19;3.20;99.90
22450;DHT22;11392;57.390;-2.468;2023-12-29T06:53:46;3.10;99.90
22450;DHT22;11392;57.390;-2.468;2023-12-29T06:56:17;3.10;99.90
22450;DHT22;11392;57.390;-2.468;2023-12-29T06:58:47;3.10;99.90
22450;DHT22;11392;57.390;-2.468;2023-12-29T07:01:14;3.10;99.90
22450;DHT22;11392;57.390;-2.468;2023-12-29T07:03:43;3.00;99.90
22450;DHT22;11392;57.390;-2.468;2023-12-29T07:06:11;2.90;99.90
22450;DHT22;11392;57.390;-2.468;2023-12-29T07:08:38;2.90;99.90
22450;DHT22;11392;57.390;-2.468;2023-12-29T07:11:09;2.90;99.90
22450;DHT22;11392;57.390;-2.468;2023-12-29T07:13:37;2.90;99.90
22450;DHT22;11392;57.390;-2.468;2023-12-29T07:16:05;2.80;99.90
22450;DHT22;11392;57.390;-2.468;2023-12-29T07:18:32;2.80;99.90
22450;DHT22;11392;57.390;-2.468;2023-12-29T07:20:59;2.80;99.90
22450;DHT22;11392;57.390;-2.468;2023-12-29T07:23:26;2.70;99.90
22450;DHT22;11392;57.390;-2.468;2023-12-29T07:25:53;2.70;99.90
22450;DHT22;11392;57.390;-2.468;2023-12-29T07:28:20;2.70;99.90
22450;DHT22;11392;57.390;-2.468;2023-12-29T07:30:48;2.70;99.90
22450;DHT22;11392;57.390;-2.468;2023-12-29T07:33:15;2.70;99.90
22450;DHT22;11392;57.390;-2.468;2023-12-29T07:35:42;2.70;99.90
22450;DHT22;11392;57.390;-2.468;2023-12-29T07:38:10;2.90;99.90
22450;DHT22;11392;57.390;-2.468;2023-12-29T07:40:37;2.90;99.90
22450;DHT22;11392;57.390;-2.468;2023-12-29T07:43:04;2.90;99.90
22450;DHT22;11392;57.390;-2.468;2023-12-29T07:45:31;2.90;99.90
22450;DHT22;11392;57.390;-2.468;2023-12-29T07:47:58;2.80;99.90
22450;DHT22;11392;57.390;-2.468;2023-12-29T07:50:26;2.80;99.90
22450;DHT22;11392;57.390;-2.468;2023-12-29T07:52:53;2.70;99.90
22450;DHT22;11392;57.390;-2.468;2023-12-29T07:55:20;2.60;99.90
22450;DHT22;11392;57.390;-2.468;2023-12-29T07:57:47;2.50;99.90
22450;DHT22;11392;57.390;-2.468;2023-12-29T08:00:15;2.50;99.90
22450;DHT22;11392;57.390;-2.468;2023-12-29T08:02:42;2.50;99.90
22450;DHT22;11392;57.390;-2.468;2023-12-29T08:05:09;2.50;99.90
22450;DHT22;11392;57.390;-2.468;2023-12-29T08:07:37;2.50;99.90
22450;DHT22;11392;57.390;-2.468;2023-12-29T08:10:05;2.50;99.90
22450;DHT22;11392;57.390;-2.468;2023-12-29T08:12:33;2.50;99.90
22450;DHT22;11392;57.390;-2.468;2023-12-29T08:15:01;2.50;99.90
22450;DHT22;11392;57.390;-2.468;2023-12-29T08:17:28;2.50;99.90
22450;DHT22;11392;57.390;-2.468;2023-12-29T08:19:56;2.50;99.90
22450;DHT22;11392;57.390;-2.468;2023-12-29T08:22:23;2.60;99.90
22450;DHT22;11392;57.390;-2.468;2023-12-29T08:24:50;2.60;99.90
22450;DHT22;11392;57.390;-2.468;2023-12-29T08:27:24;2.60;99.90
22450;DHT22;11392;57.390;-2.468;2023-12-29T08:29:53;2.50;99.90
22450;DHT22;11392;57.390;-2.468;2023-12-29T08:32:20;2.50;99.90
22450;DHT22;11392;57.390;-2.468;2023-12-29T08:34:48;2.50;99.90
22450;DHT22;11392;57.390;-2.468;2023-12-29T08:37:16;2.50;99.90
22450;DHT22;11392;57.390;-2.468;2023-12-29T08:39:47;2.60;99.90
22450;DHT22;11392;57.390;-2.468;2023-12-29T08:42:16;2.70;99.90
22450;DHT22;11392;57.390;-2.468;2023-12-29T08:44:43;2.70;99.90
22450;DHT22;11392;57.390;-2.468;2023-12-29T08:47:10;2.70;99.90
22450;DHT22;11392;57.390;-2.468;2023-12-29T08:49:38;2.70;99.90
22450;DHT22;11392;57.390;-2.468;2023-12-29T08:52:05;2.70;99.90
22450;DHT22;11392;57.390;-2.468;2023-12-29T08:54:32;2.80;99.90
22450;DHT22;11392;57.390;-2.468;2023-12-29T08:57:00;2.70;99.90
22450;DHT22;11392;57.390;-2.468;2023-12-29T08:59:27;2.70;99.90
22450;DHT22;11392;57.390;-2.468;2023-12-29T09:01:54;2.60;99.90
22450;DHT22;11392;57.390;-2.468;2023-12-29T09:04:21;2.70;99.90
22450;DHT22;11392;57.390;-2.468;2023-12-29T09:06:48;2.70;99.90
22450;DHT22;11392;57.390;-2.468;2023-12-29T09:09:16;2.80;99.90
22450;DHT22;11392;57.390;-2.468;2023-12-29T09:11:44;2.70;99.90
22450;DHT22;11392;57.390;-2.468;2023-12-29T09:14:12;2.80;99.90
22450;DHT22;11392;57.390;-2.468;2023-12-29T09:16:39;2.70;99.90
22450;DHT22;11392;57.390;-2.468;2023-12-29T09:19:10;2.80;99.90
22450;DHT22;11392;57.390;-2.468;2023-12-29T09:21:40;2.70;99.90
22450;DHT22;11392;57.390;-2.468;2023-12-29T09:24:07;2.70;99.90
22450;DHT22;11392;57.390;-2.468;2023-12-29T09:26:34;2.70;99.90
22450;DHT22;11392;57.390;-2.468;2023-12-29T09:29:01;2.70;99.90
22450;DHT22;11392;57.390;-2.468;2023-12-29T09:31:28;2.70;99.90
22450;DHT22;11392;57.390;-2.468;2023-12-29T09:33:57;2.70;99.90
22450;DHT22;11392;57.390;-2.468;2023-12-29T09:36:25;2.60;99.90
22450;DHT22;11392;57.390;-2.468;2023-12-29T09:38:53;2.60;99.90
22450;DHT22;11392;57.390;-2.468;2023-12-29T09:41:20;2.50;99.90
22450;DHT22;11392;57.390;-2.468;2023-12-29T09:43:51;2.50;99.90
22450;DHT22;11392;57.390;-2.468;2023-12-29T09:46:20;2.50;99.90
22450;DHT22;11392;57.390;-2.468;2023-12-29T09:48:52;2.60;99.90
22450;DHT22;11392;57.390;-2.468;2023-12-29T09:51:19;3.00;99.90
22450;DHT22;11392;57.390;-2.468;2023-12-29T09:53:51;3.30;99.90
22450;DHT22;11392;57.390;-2.468;2023-12-29T09:56:19;3.50;99.90
22450;DHT22;11392;57.390;-2.468;2023-12-29T09:58:47;3.50;99.90
22450;DHT22;11392;57.390;-2.468;2023-12-29T10:01:17;3.60;99.90
22450;DHT22;11392;57.390;-2.468;2023-12-29T10:03:47;3.70;99.90
22450;DHT22;11392;57.390;-2.468;2023-12-29T10:06:19;3.90;99.90
22450;DHT22;11392;57.390;-2.468;2023-12-29T10:08:49;4.10;99.90
22450;DHT22;11392;57.390;-2.468;2023-12-29T10:11:21;4.20;99.90
22450;DHT22;11392;57.390;-2.468;2023-12-29T10:13:50;4.20;99.90
22450;DHT22;11392;57.390;-2.468;2023-12-29T10:21:55;3.60;99.90
22450;DHT22;11392;57.390;-2.468;2023-12-29T10:24:23;3.40;99.90
22450;DHT22;11392;57.390;-2.468;2023-12-29T10:26:50;3.70;99.90
22450;DHT22;11392;57.390;-2.468;2023-12-29T10:29:20;4.00;99.90
22450;DHT22;11392;57.390;-2.468;2023-12-29T10:31:47;4.20;99.90
22450;DHT22;11392;57.390;-2.468;2023-12-29T10:34:25;4.30;99.90
22450;DHT22;11392;57.390;-2.468;2023-12-29T10:37:01;4.30;99.90
22450;DHT22;11392;57.390;-2.468;2023-12-29T10:39:55;4.10;99.90
22450;DHT22;11392;57.390;-2.468;2023-12-29T10:42:23;3.90;99.90
22450;DHT22;11392;57.390;-2.468;2023-12-29T10:45:04;4.00;99.90
22450;DHT22;11392;57.390;-2.468;2023-12-29T10:47:33;4.10;99.90
22450;DHT22;11392;57.390;-2.468;2023-12-29T10:50:05;4.40;99.90
22450;DHT22;11392;57.390;-2.468;2023-12-29T10:52:32;4.60;99.90
22450;DHT22;11392;57.390;-2.468;2023-12-29T10:57:35;4.70;99.90
22450;DHT22;11392;57.390;-2.468;2023-12-29T11:00:03;4.90;99.90
22450;DHT22;11392;57.390;-2.468;2023-12-29T11:02:31;4.90;99.90
22450;DHT22;11392;57.390;-2.468;2023-12-29T11:05:06;5.00;99.90
22450;DHT22;11392;57.390;-2.468;2023-12-29T11:07:38;5.00;99.90
22450;DHT22;11392;57.390;-2.468;2023-12-29T11:10:09;5.00;99.90
22450;DHT22;11392;57.390;-2.468;2023-12-29T11:12:37;5.20;99.90
22450;DHT22;11392;57.390;-2.468;2023-12-29T11:15:06;5.30;99.90
22450;DHT22;11392;57.390;-2.468;2023-12-29T11:17:35;5.40;99.90
22450;DHT22;11392;57.390;-2.468;2023-12-29T11:20:04;5.30;99.90
22450;DHT22;11392;57.390;-2.468;2023-12-29T11:22:32;5.20;99.90
22450;DHT22;11392;57.390;-2.468;2023-12-29T11:25:00;5.40;99.90
22450;DHT22;11392;57.390;-2.468;2023-12-29T11:27:31;5.40;99.90
22450;DHT22;11392;57.390;-2.468;2023-12-29T11:30:03;5.40;99.90
22450;DHT22;11392;57.390;-2.468;2023-12-29T11:32:45;5.50;99.90
22450;DHT22;11392;57.390;-2.468;2023-12-29T11:35:30;5.30;99.90
22450;DHT22;11392;57.390;-2.468;2023-12-29T11:41:19;5.30;99.90
22450;DHT22;11392;57.390;-2.468;2023-12-29T11:44:00;5.60;99.90
22450;DHT22;11392;57.390;-2.468;2023-12-29T11:46:44;5.80;99.90
22450;DHT22;11392;57.390;-2.468;2023-12-29T11:49:11;5.70;99.90
22450;DHT22;11392;57.390;-2.468;2023-12-29T11:51:43;5.60;99.90
22450;DHT22;11392;57.390;-2.468;2023-12-29T11:54:22;5.70;99.90
22450;DHT22;11392;57.390;-2.468;2023-12-29T11:56:50;5.80;99.90
22450;DHT22;11392;57.390;-2.468;2023-12-29T11:59:19;5.80;99.90
22450;DHT22;11392;57.390;-2.468;2023-12-29T12:01:50;5.80;99.90
22450;DHT22;11392;57.390;-2.468;2023-12-29T12:07:04;5.90;99.90
22450;DHT22;11392;57.390;-2.468;2023-12-29T12:09:32;5.80;99.90
22450;DHT22;11392;57.390;-2.468;2023-12-29T12:12:03;5.80;99.90
22450;DHT22;11392;57.390;-2.468;2023-12-29T12:14:52;5.70;99.90
22450;DHT22;11392;57.390;-2.468;2023-12-29T12:17:33;5.80;99.90
22450;DHT22;11392;57.390;-2.468;2023-12-29T12:20:07;5.70;99.90
22450;DHT22;11392;57.390;-2.468;2023-12-29T12:22:36;5.90;99.90
22450;DHT22;11392;57.390;-2.468;2023-12-29T12:25:05;5.90;99.90
22450;DHT22;11392;57.390;-2.468;2023-12-29T12:27:37;5.80;99.90
22450;DHT22;11392;57.390;-2.468;2023-12-29T12:30:05;5.90;99.90
22450;DHT22;11392;57.390;-2.468;2023-12-29T12:32:33;5.90;99.90
22450;DHT22;11392;57.390;-2.468;2023-12-29T12:35:00;5.70;99.90
22450;DHT22;11392;57.390;-2.468;2023-12-29T12:37:29;5.80;99.90
22450;DHT22;11392;57.390;-2.468;2023-12-29T12:39:56;5.90;99.90
22450;DHT22;11392;57.390;-2.468;2023-12-29T12:42:23;6.10;99.90
22450;DHT22;11392;57.390;-2.468;2023-12-29T12:45:16;6.10;99.90
22450;DHT22;11392;57.390;-2.468;2023-12-29T12:47:45;6.20;99.90
22450;DHT22;11392;57.390;-2.468;2023-12-29T12:50:17;6.30;99.90
22450;DHT22;11392;57.390;-2.468;2023-12-29T12:52:44;6.10;99.90
22450;DHT22;11392;57.390;-2.468;2023-12-29T12:55:12;6.10;99.90
22450;DHT22;11392;57.390;-2.468;2023-12-29T12:57:41;6.40;99.90
22450;DHT22;11392;57.390;-2.468;2023-12-29T13:00:09;6.60;99.90
22450;DHT22;11392;57.390;-2.468;2023-12-29T13:02:36;6.60;99.90
22450;DHT22;11392;57.390;-2.468;2023-12-29T13:05:04;6.60;99.90
22450;DHT22;11392;57.390;-2.468;2023-12-29T13:07:35;6.60;99.90
22450;DHT22;11392;57.390;-2.468;2023-12-29T13:10:03;6.50;99.90
22450;DHT22;11392;57.390;-2.468;2023-12-29T13:12:31;6.30;99.90
22450;DHT22;11392;57.390;-2.468;2023-12-29T13:15:07;6.30;99.90
22450;DHT22;11392;57.390;-2.468;2023-12-29T13:17:35;6.20;99.90
22450;DHT22;11392;57.390;-2.468;2023-12-29T13:20:02;6.20;99.90
22450;DHT22;11392;57.390;-2.468;2023-12-29T13:22:31;6.00;99.90
22450;DHT22;11392;57.390;-2.468;2023-12-29T13:24:59;6.10;99.90
22450;DHT22;11392;57.390;-2.468;2023-12-29T13:27:26;6.00;99.90
22450;DHT22;11392;57.390;-2.468;2023-12-29T13:29:54;5.90;99.90
22450;DHT22;11392;57.390;-2.468;2023-12-29T13:32:22;5.90;99.90
22450;DHT22;11392;57.390;-2.468;2023-12-29T13:35:25;6.00;99.90
22450;DHT22;11392;57.390;-2.468;2023-12-29T13:38:12;5.90;99.90
22450;DHT22;11392;57.390;-2.468;2023-12-29T13:40:59;6.00;99.90
22450;DHT22;11392;57.390;-2.468;2023-12-29T13:43:30;6.00;99.90
22450;DHT22;11392;57.390;-2.468;2023-12-29T13:46:00;5.80;99.90
22450;DHT22;11392;57.390;-2.468;2023-12-29T13:48:28;5.80;99.90
22450;DHT22;11392;57.390;-2.468;2023-12-29T13:50:56;5.60;99.90
22450;DHT22;11392;57.390;-2.468;2023-12-29T13:53:23;5.60;99.90
22450;DHT22;11392;57.390;-2.468;2023-12-29T13:55:50;5.60;99.90
22450;DHT22;11392;57.390;-2.468;2023-12-29T13:58:17;5.60;99.90
22450;DHT22;11392;57.390;-2.468;2023-12-29T14:00:46;5.60;99.90
22450;DHT22;11392;57.390;-2.468;2023-12-29T14:03:27;5.50;99.90
22450;DHT22;11392;57.390;-2.468;2023-12-29T14:06:03;5.30;99.90
22450;DHT22;11392;57.390;-2.468;2023-12-29T14:08:39;5.20;99.90
22450;DHT22;11392;57.390;-2.468;2023-12-29T14:11:07;5.10;99.90
22450;DHT22;11392;57.390;-2.468;2023-12-29T14:13:40;5.10;99.90
22450;DHT22;11392;57.390;-2.468;2023-12-29T14:16:08;5.00;99.90
22450;DHT22;11392;57.390;-2.468;2023-12-29T14:21:30;5.00;99.90
22450;DHT22;11392;57.390;-2.468;2023-12-29T14:26:27;5.00;99.90
22450;DHT22;11392;57.390;-2.468;2023-12-29T14:29:07;4.90;99.90
22450;DHT22;11392;57.390;-2.468;2023-12-29T14:31:43;4.90;99.90
22450;DHT22;11392;57.390;-2.468;2023-12-29T14:34:12;4.80;99.90
22450;DHT22;11392;57.390;-2.468;2023-12-29T14:36:41;4.80;99.90
22450;DHT22;11392;57.390;-2.468;2023-12-29T14:39:09;4.80;99.90
22450;DHT22;11392;57.390;-2.468;2023-12-29T14:41:37;4.70;99.90
22450;DHT22;11392;57.390;-2.468;2023-12-29T14:44:05;4.60;99.90
22450;DHT22;11392;57.390;-2.468;2023-12-29T14:46:32;4.50;99.90
22450;DHT22;11392;57.390;-2.468;2023-12-29T14:49:03;4.30;99.90
22450;DHT22;11392;57.390;-2.468;2023-12-29T14:51:31;4.30;99.90
22450;DHT22;11392;57.390;-2.468;2023-12-29T14:53:58;4.10;99.90
22450;DHT22;11392;57.390;-2.468;2023-12-29T14:56:25;3.90;99.90
22450;DHT22;11392;57.390;-2.468;2023-12-29T14:58:52;3.90;99.90
22450;DHT22;11392;57.390;-2.468;2023-12-29T15:01:20;3.80;99.90
22450;DHT22;11392;57.390;-2.468;2023-12-29T15:03:47;3.80;99.90
22450;DHT22;11392;57.390;-2.468;2023-12-29T15:06:14;3.80;99.90
22450;DHT22;11392;57.390;-2.468;2023-12-29T15:08:41;3.60;99.90
22450;DHT22;11392;57.390;-2.468;2023-12-29T15:11:08;3.60;99.90
22450;DHT22;11392;57.390;-2.468;2023-12-29T15:13:35;3.50;99.90
22450;DHT22;11392;57.390;-2.468;2023-12-29T15:16:03;3.40;99.90
22450;DHT22;11392;57.390;-2.468;2023-12-29T15:18:33;3.20;99.90
22450;DHT22;11392;57.390;-2.468;2023-12-29T15:21:01;3.10;99.90
22450;DHT22;11392;57.390;-2.468;2023-12-29T15:23:29;3.10;99.90
22450;DHT22;11392;57.390;-2.468;2023-12-29T15:25:56;3.00;99.90
22450;DHT22;11392;57.390;-2.468;2023-12-29T15:28:23;3.00;99.90
22450;DHT22;11392;57.390;-2.468;2023-12-29T15:30:50;2.90;99.90
22450;DHT22;11392;57.390;-2.468;2023-12-29T15:33:18;2.90;99.90
22450;DHT22;11392;57.390;-2.468;2023-12-29T15:35:46;2.90;99.90
22450;DHT22;11392;57.390;-2.468;2023-12-29T15:38:13;2.90;99.90
22450;DHT22;11392;57.390;-2.468;2023-12-29T15:40:41;2.80;99.90
22450;DHT22;11392;57.390;-2.468;2023-12-29T15:43:08;2.70;99.90
22450;DHT22;11392;57.390;-2.468;2023-12-29T15:45:35;2.80;99.90
22450;DHT22;11392;57.390;-2.468;2023-12-29T15:48:03;2.70;99.90
22450;DHT22;11392;57.390;-2.468;2023-12-29T15:50:31;2.70;99.90
22450;DHT22;11392;57.390;-2.468;2023-12-29T15:52:59;2.70;99.90
22450;DHT22;11392;57.390;-2.468;2023-12-29T15:55:26;2.70;99.90
22450;DHT22;11392;57.390;-2.468;2023-12-29T15:57:53;2.70;99.90
22450;DHT22;11392;57.390;-2.468;2023-12-29T16:00:20;2.60;99.90
22450;DHT22;11392;57.390;-2.468;2023-12-29T16:02:47;2.60;99.90
22450;DHT22;11392;57.390;-2.468;2023-12-29T16:05:15;2.60;99.90
22450;DHT22;11392;57.390;-2.468;2023-12-29T16:07:42;2.60;99.90
22450;DHT22;11392;57.390;-2.468;2023-12-29T16:10:10;2.60;99.90
22450;DHT22;11392;57.390;-2.468;2023-12-29T16:12:37;2.50;99.90